Flight Briefing for CPX771

Departure Arrival
Li├Ęge Airport (EBLG)
Click to view FAA NOTAMS
Tallinn Airport (EETN)
Click to view FAA NOTAMS
Departure Time Arrival Time
N/A N/A
Aircraft Distance
B767-300BDSF 849nm
Departure METAR Arrival METAR
EBLG 152020Z 19009KT CAVOK 10/M01 Q1027 NOSIG EETN 152050Z 23004KT 170V280 9999 OVC003 03/02 Q1017 R08/19//95 TEMPO 1500 BR
Suggested Route
LNO5E LNO M170 NVO UZ706 PIXID GESKA P605 MALIV M611 KOLJA M611 LONSA


View recent IFR Routes data
Notes



Charts and Procedures

Charts for EBLG
No chart available
Charts for EETN
No chart available

Ventusky Weather